| time (UTC) | temp F | wind direction | speed knots | gust knots | rain 1hr in | rain 24hr in | rain mn in | humidity % | barometer mb |
| 20260505074018 | 57 | 172 | 0.0 | 1.7 | 0.00 | 0.00 | 0.00 | 81 | 1007.4 |
| 20260505073018 | 57 | 0.0 | 0.0 | 0.00 | 0.00 | 0.00 | 80 | 1007.2 | |
| 20260505072018 | 57 | 226 | 0.0 | 0.9 | 0.00 | 0.00 | 0.00 | 79 | 1007.2 |
| 20260505071059 | 58 | 211 | 0.0 | 0.9 | 0.00 | 0.00 | 0.00 | 77 | 1007.2 |
| 20260505070016 | 58 | 151 | 0.0 | 2.6 | 0.00 | 0.00 | 0.00 | 77 | 1007.2 |
| 20260505065016 | 59 | 182 | 0.0 | 1.7 | 0.00 | 0.00 | 0.00 | 76 | 1007.3 |
| 20260505064016 | 59 | 168 | 0.9 | 2.6 | 0.00 | 0.00 | 0.00 | 75 | 1007.2 |
| 20260505063020 | 0 | 0.0 | 0.0 | 0.00 | 0.00 | 0.00 | |||
| 20260505062017 | 61 | 189 | 0.0 | 0.9 | 0.00 | 0.00 | 0.00 | 73 | 1007.1 |
| 20260505061017 | 61 | 194 | 0.0 | 2.6 | 0.00 | 0.00 | 0.00 | 73 | 1007.1 |
| 20260505060016 | 61 | 163 | 0.0 | 2.6 | 0.00 | 0.00 | 0.00 | 73 | 1007.0 |
| 20260505055017 | 61 | 195 | 0.0 | 1.7 | 0.00 | 0.00 | 0.00 | 72 | 1006.5 |
| 20260505054018 | 62 | 0.0 | 0.0 | 0.00 | 0.00 | 0.00 | 70 | 1006.4 | |
| 20260505053017 | 63 | 0.0 | 0.0 | 0.00 | 0.00 | 0.00 | 70 | 1006.5 | |
| 20260505052017 | 63 | 0.0 | 0.0 | 0.00 | 0.00 | 0.00 | 69 | 1006.5 | |
| 20260505051017 | 64 | 0.0 | 0.0 | 0.00 | 0.00 | 0.00 | 67 | 1006.6 | |
| 20260505041015 | 67 | 0.0 | 0.0 | 0.00 | 0.00 | 0.00 | 59 | 1006.1 | |
| 20260505040017 | 68 | 323 | 0.0 | 0.9 | 0.00 | 0.00 | 0.00 | 57 | 1006.1 |
| 20260505035016 | 70 | 0.0 | 0.0 | 0.00 | 0.00 | 0.00 | 55 | 1006.3 | |
| 20260505034016 | 70 | 0.0 | 0.0 | 0.00 | 0.00 | 0.00 | 54 | 1006.4 | |
| 20260505033017 | 71 | 219 | 0.0 | 0.9 | 0.00 | 0.00 | 0.00 | 53 | 1006.5 |
| 20260505032036 | 71 | 219 | 0.0 | 0.9 | 0.00 | 0.00 | 0.00 | 53 | 1006.6 |
| 20260505031037 | 72 | 0.0 | 0.0 | 0.00 | 0.00 | 0.00 | 52 | 1006.8 | |
| 20260505030016 | 73 | 307 | 0.0 | 0.9 | 0.00 | 0.00 | 0.00 | 50 | 1007.0 |
| 20260505025018 | 73 | 300 | 0.0 | 1.7 | 0.00 | 0.00 | 0.00 | 49 | 1007.2 |
| 20260505024016 | 74 | 335 | 0.0 | 1.7 | 0.00 | 0.00 | 0.00 | 49 | 1007.4 |
| 20260505023017 | 75 | 331 | 0.9 | 2.6 | 0.00 | 0.00 | 0.00 | 47 | 1007.6 |
| 20260505022016 | 76 | 331 | 1.7 | 2.6 | 0.00 | 0.00 | 0.00 | 47 | 1008.0 |
| 20260505021017 | 77 | 340 | 1.7 | 3.5 | 0.00 | 0.00 | 0.00 | 46 | 1008.4 |
| 20260505020039 | 78 | 344 | 1.7 | 3.5 | 0.00 | 0.00 | 0.00 | 46 | 1008.7 |
| 20260505015018 | 79 | 349 | 2.6 | 5.2 | 0.00 | 0.00 | 0.00 | 46 | 1009.0 |
| 20260505014018 | 81 | 343 | 2.6 | 6.1 | 0.00 | 0.00 | 0.00 | 45 | 1009.1 |
| 20260505013019 | 82 | 337 | 1.7 | 2.6 | 0.00 | 0.00 | 0.00 | ||
| 20260505012016 | 84 | 145 | 0.9 | 2.6 | 0.00 | 0.00 | 0.00 | 44 | 1009.0 |
| 20260505011015 | 83 | 206 | 0.0 | 0.9 | 0.00 | 0.00 | 0.00 | 43 | 1008.9 |
| 20260505010016 | 83 | 265 | 0.0 | 2.6 | 0.00 | 0.00 | 0.00 | 43 | 1009.0 |
| 20260505005016 | 84 | 204 | 0.9 | 1.7 | 0.00 | 0.00 | 0.00 | 43 | 1009.1 |
| 20260505004037 | 84 | 242 | 0.0 | 1.7 | 0.00 | 0.00 | 0.00 | 43 | 1009.2 |
| 20260505003016 | 82 | 196 | 0.0 | 1.7 | 0.00 | 0.00 | 0.00 | 42 | 1009.4 |
| 20260505002016 | 83 | 284 | 2.6 | 4.3 | 0.00 | 0.00 | 0.00 | 42 | 1009.6 |
| 20260505001057 | 85 | 315 | 0.9 | 3.5 | 0.00 | 0.00 | 0.00 | 42 | 1009.6 |
| 20260505000017 | 84 | 267 | 0.0 | 3.5 | 0.00 | 0.00 | 0.00 | 42 | 1009.7 |
| 20260504235017 | 83 | 202 | 0.0 | 1.7 | 0.00 | 0.00 | 0.00 | 42 | 1009.7 |
| 20260504234017 | 83 | 193 | 0.0 | 1.7 | 0.00 | 0.00 | 0.00 | 42 | 1009.9 |
| 20260504233017 | 84 | 191 | 0.9 | 5.2 | 0.00 | 0.00 | 0.00 | 40 | 1009.9 |
| 20260504232017 | 83 | 137 | 0.0 | 1.7 | 0.00 | 0.00 | 0.00 | 40 | 1010.0 |
| 20260504231038 | 83 | 242 | 0.9 | 3.5 | 0.00 | 0.00 | 0.00 | 40 | 1010.0 |
| 20260504230018 | 82 | 180 | 0.9 | 2.6 | 0.00 | 0.00 | 0.00 | 40 | 1010.0 |
| 20260504225017 | 81 | 181 | 0.9 | 2.6 | 0.00 | 0.00 | 0.00 | 40 | 1010.2 |
| 20260504224037 | 81 | 162 | 0.9 | 3.5 | 0.00 | 0.00 | 0.00 | 40 | 1010.3 |
| 20260504223018 | 82 | 204 | 0.9 | 3.5 | 0.00 | 0.00 | 0.00 | 40 | 1010.6 |
| 20260504222037 | 82 | 142 | 0.9 | 2.6 | 0.00 | 0.00 | 0.00 | 40 | 1011.0 |
| 20260504221018 | 82 | 175 | 0.0 | 2.6 | 0.00 | 0.00 | 0.00 | 40 | 1011.3 |
| 20260504220018 | 0 | 0.0 | 0.0 | 0.00 | 0.00 | 0.00 | |||
| 20260504215015 | 0 | 0.0 | 0.0 | 0.00 | 0.00 | 0.00 | |||
| 20260504214036 | 0 | 0.0 | 0.0 | 0.00 | 0.00 | 0.00 | |||
| 20260504213016 | 0 | 0.0 | 0.0 | 0.00 | 0.00 | 0.00 | |||
| 20260504212016 | 80 | 190 | 0.9 | 2.6 | 0.00 | 0.00 | 0.00 | 38 | 1012.3 |
| 20260504211016 | 0 | 0.0 | 0.0 | 0.00 | 0.00 | 0.00 | |||
| 20260504210016 | 0 | 0.0 | 0.0 | 0.00 | 0.00 | 0.00 | |||
| 20260504205017 | 0 | 0.0 | 0.0 | 0.00 | 0.00 | 0.00 | |||
| 20260504204037 | 0 | 0.0 | 0.0 | 0.00 | 0.00 | 0.00 | |||
| 20260504203018 | 0 | 0.0 | 0.0 | 0.00 | 0.00 | 0.00 | |||
| 20260504202037 | 0 | 0.0 | 0.0 | 0.00 | 0.00 | 0.00 | |||
| 20260504201018 | 0 | 0.0 | 0.0 | 0.00 | 0.00 | 0.00 | |||
| 20260504200018 | 0 | 0.0 | 0.0 | 0.00 | 0.00 | 0.00 | |||
| 20260504195017 | 0 | 0.0 | 0.0 | 0.00 | 0.00 | 0.00 | |||
| 20260504194016 | 78 | 235 | 0.9 | 4.3 | 0.00 | 0.00 | 0.00 | 46 | 1013.5 |
| 20260504193018 | 78 | 253 | 0.9 | 2.6 | 0.00 | 0.00 | 0.00 | 46 | 1013.7 |
| 20260504192017 | 78 | 184 | 0.0 | 2.6 | 0.00 | 0.00 | 0.00 | 46 | 1014.1 |
| 20260504191016 | 77 | 225 | 0.9 | 3.5 | 0.00 | 0.00 | 0.00 | 46 | 1014.4 |
| 20260504190017 | 77 | 176 | 0.9 | 2.6 | 0.00 | 0.00 | 0.00 | 47 | 1014.7 |
| 20260504185016 | 77 | 217 | 0.9 | 1.7 | 0.00 | 0.00 | 0.00 | 49 | 1015.1 |
| 20260504184016 | 76 | 215 | 0.9 | 2.6 | 0.00 | 0.00 | 0.00 | 51 | 1015.3 |
| 20260504183017 | 0 | 0.0 | 0.0 | 0.00 | 0.00 | 0.00 | |||
| 20260504182057 | 74 | 264 | 0.0 | 2.6 | 0.00 | 0.00 | 0.00 | 53 | 1015.1 |
| 20260504181017 | 0 | 0.0 | 0.0 | 0.00 | 0.00 | 0.00 | |||
| 20260504180037 | 0 | 0.0 | 0.0 | 0.00 | 0.00 | 0.00 | |||
| 20260504175017 | 73 | 208 | 0.0 | 3.5 | 0.00 | 0.00 | 0.00 | 57 | 1015.6 |
| 20260504174019 | 73 | 188 | 0.0 | 2.6 | 0.00 | 0.00 | 0.00 | 59 | 1015.6 |
| 20260504173017 | 72 | 192 | 0.9 | 1.7 | 0.00 | 0.00 | 0.00 | 60 | 1015.8 |
| 20260504172017 | 73 | 201 | 0.9 | 1.7 | 0.00 | 0.00 | 0.00 | 61 | 1016.0 |
| 20260504171037 | 73 | 173 | 0.0 | 1.7 | 0.00 | 0.00 | 0.00 | 62 | 1016.2 |
| 20260504151017 | 62 | 350 | 0.0 | 1.7 | 0.00 | 0.00 | 0.00 | 70 | 1016.9 |
| 20260504141017 | 54 | 0.0 | 0.0 | 0.00 | 0.00 | 0.00 | 81 | 1015.1 | |
| 20260504081018 | 57 | 296 | 0.0 | 0.9 | 0.00 | 0.00 | 0.00 | 70 | 1005.4 |